createdAt,value
2019-04-04T00:01:53.091Z,24.87
2019-04-04T00:03:54.442Z,24.30
2019-04-04T00:05:56.644Z,25.80
2019-04-04T00:08:00.137Z,25.10
2019-04-04T00:10:04.661Z,23.57
2019-04-04T00:12:08.042Z,24.27
2019-04-04T00:14:12.744Z,25.00
2019-04-04T00:16:15.615Z,24.57
2019-04-04T00:18:16.308Z,23.77
2019-04-04T00:20:17.654Z,24.40
2019-04-04T00:22:19.043Z,25.07
2019-04-04T00:24:20.396Z,25.07
2019-04-04T00:26:21.738Z,23.70
2019-04-04T00:28:23.115Z,24.10
2019-04-04T00:30:24.469Z,24.30
2019-04-04T00:32:25.817Z,24.53
2019-04-04T00:34:28.156Z,22.93
2019-04-04T00:36:30.069Z,24.00
2019-04-04T00:38:31.396Z,24.00
2019-04-04T00:40:32.778Z,22.40
2019-04-04T00:42:34.260Z,22.90
2019-04-04T00:44:35.610Z,23.60
2019-04-04T00:46:36.955Z,21.90
2019-04-04T00:48:38.323Z,22.37
2019-04-04T00:50:39.743Z,23.90
2019-04-04T00:52:41.519Z,22.00
2019-04-04T00:54:44.785Z,24.33
2019-04-04T00:56:46.913Z,24.33
2019-04-04T00:58:51.680Z,22.93
2019-04-04T01:00:52.978Z,22.70
2019-04-04T01:02:58.295Z,24.80
2019-04-04T01:05:01.311Z,24.50
2019-04-04T01:07:02.998Z,24.60
2019-04-04T01:09:11.745Z,23.40
2019-04-04T01:11:09.220Z,25.67
2019-04-04T01:13:10.581Z,23.43
2019-04-04T01:15:12.125Z,25.07
2019-04-04T01:17:13.508Z,24.17
2019-04-04T01:19:14.881Z,24.50
2019-04-04T01:21:16.247Z,23.77
2019-04-04T01:23:17.599Z,23.07
2019-04-04T01:25:18.975Z,24.70
2019-04-04T01:27:20.365Z,22.20
2019-04-04T01:29:21.729Z,24.03
2019-04-04T01:31:23.104Z,24.17
2019-04-04T01:33:24.481Z,23.53
2019-04-04T01:35:25.847Z,26.30
2019-04-04T01:37:27.883Z,25.17
2019-04-04T01:39:31.231Z,23.93
2019-04-04T01:41:35.863Z,23.20
2019-04-04T01:43:35.830Z,25.37
2019-04-04T01:45:37.224Z,25.40
2019-04-04T01:47:38.695Z,26.00
2019-04-04T01:49:40.036Z,26.83
2019-04-04T01:51:41.386Z,26.07
2019-04-04T01:53:42.774Z,23.43
2019-04-04T01:55:44.134Z,26.17
2019-04-04T01:57:45.486Z,24.43
2019-04-04T01:59:46.861Z,23.00
2019-04-04T02:01:48.209Z,24.67
2019-04-04T02:03:49.545Z,24.40
2019-04-04T02:05:50.925Z,23.70
2019-04-04T02:07:52.277Z,26.00
2019-04-04T02:09:53.856Z,24.70
2019-04-04T02:11:55.202Z,23.23
2019-04-04T02:13:56.644Z,25.13
2019-04-04T02:15:58.027Z,24.20
2019-04-04T02:17:59.407Z,25.23
2019-04-04T02:20:00.747Z,26.23
2019-04-04T02:22:02.533Z,24.73
2019-04-04T02:24:03.878Z,25.50
2019-04-04T02:26:05.881Z,26.37
2019-04-04T02:28:08.888Z,26.63
2019-04-04T02:30:14.586Z,25.60
2019-04-04T02:32:16.125Z,26.80
2019-04-04T02:34:17.479Z,25.50
2019-04-04T02:36:18.858Z,24.40
2019-04-04T02:38:20.337Z,25.77
2019-04-04T02:40:21.688Z,26.77
2019-04-04T02:42:23.044Z,25.30
2019-04-04T02:44:24.435Z,25.93
2019-04-04T02:46:25.796Z,23.97
2019-04-04T02:48:27.152Z,25.43
2019-04-04T02:50:28.546Z,25.57
2019-04-04T02:52:29.919Z,25.40
2019-04-04T02:54:31.280Z,24.23
2019-04-04T02:56:34.847Z,25.80
2019-04-04T02:58:36.127Z,24.80
2019-04-04T03:00:37.553Z,24.93
2019-04-04T03:02:39.029Z,27.20
2019-04-04T03:04:40.473Z,24.50
2019-04-04T03:06:41.966Z,26.17
2019-04-04T03:08:43.352Z,26.10
2019-04-04T03:10:47.700Z,23.63
2019-04-04T03:12:48.102Z,24.00
2019-04-04T03:14:50.727Z,24.93
2019-04-04T03:16:56.365Z,24.77
2019-04-04T03:18:55.603Z,25.40
2019-04-04T03:20:56.950Z,25.43
2019-04-04T03:23:00.513Z,26.77
2019-04-04T03:25:01.581Z,25.67
2019-04-04T03:27:03.097Z,26.83
2019-04-04T03:29:05.756Z,26.40
2019-04-04T03:31:07.311Z,26.47
2019-04-04T03:33:08.711Z,29.03
2019-04-04T03:35:10.078Z,26.30
2019-04-04T03:37:12.428Z,27.50
2019-04-04T03:39:14.135Z,27.47
2019-04-04T03:41:15.488Z,28.20
2019-04-04T03:43:16.939Z,26.63
2019-04-04T03:45:18.412Z,25.80
2019-04-04T03:47:19.756Z,24.77
2019-04-04T03:49:24.295Z,25.63
2019-04-04T03:51:24.439Z,26.70
2019-04-04T03:53:26.015Z,26.37
2019-04-04T03:55:28.505Z,28.43
2019-04-04T03:57:30.248Z,25.83
2019-04-04T03:59:32.510Z,24.60
2019-04-04T04:01:34.551Z,24.27
2019-04-04T04:03:35.898Z,25.40
2019-04-04T04:05:40.636Z,26.00
2019-04-04T04:07:40.554Z,24.70
2019-04-04T04:09:41.940Z,23.33
2019-04-04T04:11:43.306Z,24.53
2019-04-04T04:13:49.004Z,24.40
2019-04-04T04:15:48.054Z,24.27
2019-04-04T04:17:49.403Z,23.60
2019-04-04T04:19:50.790Z,22.80
2019-04-04T04:21:52.172Z,23.07
2019-04-04T04:23:56.247Z,23.40
2019-04-04T04:25:56.851Z,22.20
2019-04-04T04:27:58.196Z,23.53
2019-04-04T04:30:00.231Z,22.50
2019-04-04T04:32:02.848Z,25.43
2019-04-04T04:34:04.203Z,25.47
2019-04-04T04:36:09.327Z,25.27
2019-04-04T04:38:08.890Z,23.80
2019-04-04T04:40:13.848Z,25.17
2019-04-04T04:42:14.609Z,24.50
2019-04-04T04:44:15.970Z,22.70
2019-04-04T04:46:18.068Z,22.73
2019-04-04T04:48:19.748Z,22.10
2019-04-04T04:50:21.096Z,24.03
2019-04-04T04:52:22.444Z,23.67
2019-04-04T04:54:23.848Z,22.90
2019-04-04T04:56:25.224Z,23.07
2019-04-04T04:58:26.575Z,21.27
2019-04-04T05:00:28.253Z,23.80
2019-04-04T05:02:29.627Z,22.20
2019-04-04T05:04:30.986Z,22.93
2019-04-04T05:06:35.298Z,22.47
2019-04-04T05:08:35.656Z,23.67
2019-04-04T05:10:37.062Z,22.23
2019-04-04T05:12:38.438Z,22.37
2019-04-04T05:14:39.800Z,22.40
2019-04-04T05:16:41.143Z,23.63
2019-04-04T05:18:42.528Z,22.97
2019-04-04T05:20:43.889Z,22.40
2019-04-04T05:22:45.293Z,21.90
2019-04-04T05:24:49.131Z,23.20
2019-04-04T05:26:49.924Z,23.40
2019-04-04T05:28:51.279Z,23.20
2019-04-04T05:30:52.694Z,23.60
2019-04-04T05:32:56.386Z,22.90
2019-04-04T05:34:57.304Z,26.10
2019-04-04T05:36:58.660Z,23.87
2019-04-04T05:39:00.006Z,20.83
2019-04-04T05:41:01.384Z,23.77
2019-04-04T05:43:04.172Z,24.57
2019-04-04T05:45:06.913Z,21.97
2019-04-04T05:47:08.391Z,22.53
2019-04-04T05:49:09.776Z,24.60
2019-04-04T05:51:11.132Z,23.40
2019-04-04T05:53:12.504Z,22.13
2019-04-04T05:55:13.903Z,22.57
2019-04-04T05:57:15.253Z,21.70
2019-04-04T05:59:16.609Z,23.50
2019-04-04T06:01:21.983Z,21.30
2019-04-04T06:03:23.320Z,21.70
2019-04-04T06:05:26.877Z,21.43
2019-04-04T06:07:27.982Z,22.57
2019-04-04T06:09:29.363Z,22.03
2019-04-04T06:11:30.744Z,22.43
2019-04-04T06:13:32.118Z,24.40
2019-04-04T06:15:33.490Z,22.60
2019-04-04T06:17:34.836Z,23.07
2019-04-04T06:19:36.192Z,24.10
2019-04-04T06:21:37.586Z,22.40
2019-04-04T06:23:38.947Z,23.27
2019-04-04T06:25:40.298Z,23.87
2019-04-04T06:27:41.707Z,23.17
2019-04-04T06:29:43.034Z,23.50
2019-04-04T06:31:44.387Z,23.87
2019-04-04T06:33:45.805Z,23.00
2019-04-04T06:35:47.982Z,23.17
2019-04-04T06:37:51.340Z,26.30
2019-04-04T06:39:54.362Z,24.47
2019-04-04T06:41:55.964Z,24.87
2019-04-04T06:43:57.317Z,23.33
2019-04-04T06:45:58.699Z,23.57
2019-04-04T06:48:00.165Z,25.80
2019-04-04T06:50:01.636Z,23.97
2019-04-04T06:52:03.139Z,25.07
2019-04-04T06:54:04.593Z,24.50
2019-04-04T06:56:05.968Z,25.57
2019-04-04T06:58:09.423Z,26.27
2019-04-04T07:00:11.198Z,26.43
2019-04-04T07:02:12.568Z,25.93
2019-04-04T07:04:13.913Z,24.53
2019-04-04T07:06:15.261Z,26.33
2019-04-04T07:08:16.633Z,27.17
2019-04-04T07:10:20.940Z,25.50
2019-04-04T07:12:28.119Z,24.33
2019-04-04T07:14:24.575Z,26.60
2019-04-04T07:16:25.923Z,26.67
2019-04-04T07:18:27.407Z,27.80
2019-04-04T07:20:28.852Z,25.90
2019-04-04T07:22:30.227Z,24.13
2019-04-04T07:24:31.772Z,23.00
2019-04-04T07:26:33.196Z,24.30
2019-04-04T07:28:34.594Z,25.47
2019-04-04T07:30:35.941Z,22.47
2019-04-04T07:32:40.710Z,20.93
2019-04-04T07:34:40.573Z,18.07
2019-04-04T07:36:41.931Z,17.97
2019-04-04T07:38:43.326Z,18.97
2019-04-04T07:40:44.681Z,17.97
2019-04-04T07:42:47.902Z,18.43
2019-04-04T07:44:49.418Z,18.30
2019-04-04T07:46:50.763Z,17.20
2019-04-04T07:48:52.352Z,17.57
2019-04-04T07:50:53.898Z,17.83
2019-04-04T07:52:55.282Z,18.60
2019-04-04T07:54:56.643Z,17.80
2019-04-04T07:56:57.997Z,17.00
2019-04-04T07:58:59.995Z,17.33
2019-04-04T08:01:01.357Z,17.40
2019-04-04T08:03:02.708Z,16.20
2019-04-04T08:05:07.485Z,17.80
2019-04-04T08:07:08.846Z,16.97
2019-04-04T08:09:10.224Z,16.70
2019-04-04T08:11:13.334Z,17.23
2019-04-04T08:13:14.901Z,16.27
2019-04-04T08:15:16.332Z,16.13
2019-04-04T08:17:19.046Z,18.00
2019-04-04T08:19:20.769Z,17.67
2019-04-04T08:21:22.118Z,15.57
2019-04-04T08:23:23.571Z,18.30
2019-04-04T08:25:24.946Z,18.10
2019-04-04T08:27:26.350Z,17.60
2019-04-04T08:29:27.696Z,19.40
2019-04-04T08:31:29.082Z,16.80
2019-04-04T08:33:30.424Z,18.83
2019-04-04T08:35:31.810Z,17.30
2019-04-04T08:37:33.170Z,18.00
2019-04-04T08:39:34.541Z,17.90
2019-04-04T08:41:36.103Z,16.50
2019-04-04T08:43:37.469Z,17.83
2019-04-04T08:45:38.833Z,18.47
2019-04-04T08:47:40.219Z,17.50
2019-04-04T08:49:41.560Z,18.60
2019-04-04T08:51:42.911Z,19.13
2019-04-04T08:53:44.313Z,18.10
2019-04-04T08:55:45.662Z,18.80
2019-04-04T08:57:47.007Z,19.53
2019-04-04T08:59:48.408Z,18.97
2019-04-04T09:01:49.734Z,20.17
2019-04-04T09:03:51.118Z,18.27
2019-04-04T09:05:52.465Z,18.70
2019-04-04T09:07:53.816Z,18.63
2019-04-04T09:09:55.278Z,17.93
2019-04-04T09:11:56.767Z,18.67
2019-04-04T09:13:58.126Z,18.63
2019-04-04T09:15:59.526Z,17.10
2019-04-04T09:18:00.874Z,18.60
2019-04-04T09:20:05.541Z,19.03
2019-04-04T09:22:10.625Z,18.37
2019-04-04T09:24:10.207Z,17.53
2019-04-04T09:26:11.611Z,17.00
2019-04-04T09:28:13.024Z,18.50
2019-04-04T09:30:15.416Z,18.13
2019-04-04T09:32:16.761Z,18.20
2019-04-04T09:34:18.121Z,16.30
2019-04-04T09:36:19.499Z,17.53
2019-04-04T09:38:20.847Z,16.90
2019-04-04T09:40:22.227Z,16.77
2019-04-04T09:42:23.599Z,19.30
2019-04-04T09:44:24.960Z,17.00
2019-04-04T09:46:26.395Z,16.70
2019-04-04T09:48:27.736Z,17.10
2019-04-04T09:50:29.077Z,17.07
2019-04-04T09:52:30.447Z,17.20
2019-04-04T09:54:31.788Z,16.40
2019-04-04T09:56:33.161Z,17.00
2019-04-04T09:58:34.533Z,16.20
2019-04-04T10:00:35.883Z,16.90
2019-04-04T10:02:37.228Z,16.00
2019-04-04T10:04:38.810Z,16.97
2019-04-04T10:06:40.160Z,15.57
2019-04-04T10:08:41.505Z,15.80
2019-04-04T10:10:42.976Z,16.97
2019-04-04T10:12:44.327Z,16.33
2019-04-04T10:14:45.673Z,16.20
2019-04-04T10:16:47.047Z,17.20
2019-04-04T10:18:48.392Z,16.23
2019-04-04T10:20:49.753Z,15.60
2019-04-04T10:22:51.124Z,15.70
2019-04-04T10:24:52.482Z,15.27
2019-04-04T10:26:53.855Z,14.37
2019-04-04T10:28:55.238Z,15.13
2019-04-04T10:30:56.598Z,14.10
2019-04-04T10:32:57.933Z,14.70
2019-04-04T10:34:59.320Z,15.60
2019-04-04T10:37:00.663Z,15.23
2019-04-04T10:39:04.047Z,17.10
2019-04-04T10:41:05.391Z,15.13
2019-04-04T10:43:06.755Z,13.90
2019-04-04T10:45:08.238Z,14.60
2019-04-04T10:47:09.615Z,14.20
2019-04-04T10:49:11.182Z,13.90
2019-04-04T10:51:12.582Z,13.90
2019-04-04T10:53:13.938Z,12.80
2019-04-04T10:55:15.323Z,14.77
2019-04-04T10:57:16.678Z,14.20
2019-04-04T10:59:18.062Z,13.83
2019-04-04T11:01:19.420Z,13.90
2019-04-04T11:03:20.785Z,16.00
2019-04-04T11:05:22.153Z,17.20
2019-04-04T11:07:23.536Z,15.80
2019-04-04T11:09:24.885Z,12.77
2019-04-04T11:11:26.222Z,15.20
2019-04-04T11:13:33.270Z,14.67
2019-04-04T11:15:30.976Z,13.70
2019-04-04T11:17:32.334Z,14.53
2019-04-04T11:19:33.704Z,14.27
2019-04-04T11:21:35.083Z,14.10
2019-04-04T11:23:36.427Z,14.73
2019-04-04T11:25:37.803Z,13.87
2019-04-04T11:27:39.191Z,12.90
2019-04-04T11:29:40.566Z,13.27
2019-04-04T11:31:41.913Z,12.93
2019-04-04T11:33:43.296Z,11.87
2019-04-04T11:35:44.666Z,13.20
2019-04-04T11:37:46.014Z,13.43
2019-04-04T11:39:54.449Z,12.93
2019-04-04T11:41:50.643Z,13.83
2019-04-04T11:43:51.991Z,11.90
2019-04-04T11:45:53.392Z,13.37
2019-04-04T11:47:54.783Z,12.10
2019-04-04T11:49:56.131Z,12.90
2019-04-04T11:51:57.503Z,12.10
2019-04-04T11:53:58.871Z,12.63
2019-04-04T11:56:00.225Z,12.27
2019-04-04T11:58:01.729Z,13.27
2019-04-04T12:00:06.482Z,13.27
2019-04-04T12:02:07.830Z,12.73
2019-04-04T12:04:09.239Z,13.47
2019-04-04T12:06:10.613Z,11.80
2019-04-04T12:08:11.958Z,12.40
2019-04-04T12:10:15.334Z,12.13
2019-04-04T12:12:16.724Z,11.60
2019-04-04T12:14:18.085Z,11.90
2019-04-04T12:16:19.441Z,11.23
2019-04-04T12:18:20.834Z,11.37
2019-04-04T12:20:22.198Z,11.70
2019-04-04T12:22:23.580Z,10.97
2019-04-04T12:24:24.924Z,11.07
2019-04-04T12:26:26.279Z,11.47
2019-04-04T12:28:27.654Z,10.87
2019-04-04T12:30:28.997Z,10.77
2019-04-04T12:32:30.374Z,10.90
2019-04-04T12:34:31.751Z,11.37
2019-04-04T12:36:33.127Z,10.83
2019-04-04T12:38:34.495Z,10.30
2019-04-04T12:40:35.891Z,10.33
2019-04-04T12:42:37.233Z,10.43
2019-04-04T12:44:38.622Z,10.10
2019-04-04T12:46:42.375Z,11.40
2019-04-04T12:48:43.246Z,10.70
2019-04-04T12:50:44.620Z,11.27
2019-04-04T12:52:45.994Z,9.10
2019-04-04T12:54:47.339Z,10.67
2019-04-04T12:56:48.716Z,9.70
2019-04-04T12:58:50.206Z,9.40
2019-04-04T13:00:51.581Z,9.97
2019-04-04T13:02:52.955Z,9.20
2019-04-04T13:04:54.304Z,8.83
2019-04-04T13:06:55.685Z,9.07
2019-04-04T13:08:57.058Z,8.13
2019-04-04T13:10:58.533Z,7.63
2019-04-04T13:12:59.901Z,7.90
2019-04-04T13:15:01.385Z,8.20
2019-04-04T13:17:02.724Z,8.20
2019-04-04T13:19:04.099Z,8.00
2019-04-04T13:21:05.452Z,7.30
2019-04-04T13:23:06.801Z,7.60
2019-04-04T13:25:08.876Z,8.10
2019-04-04T13:27:10.228Z,7.93
2019-04-04T13:29:11.592Z,7.53
2019-04-04T13:31:13.045Z,7.80
2019-04-04T13:33:14.395Z,8.07
2019-04-04T13:35:15.789Z,8.40
2019-04-04T13:37:17.163Z,7.77
2019-04-04T13:39:18.552Z,7.73
2019-04-04T13:41:22.267Z,7.20
2019-04-04T13:43:23.279Z,7.50
2019-04-04T13:45:25.391Z,7.57
2019-04-04T13:47:27.468Z,7.20
2019-04-04T13:49:28.811Z,8.20
2019-04-04T13:51:30.165Z,6.90
2019-04-04T13:53:31.561Z,7.10
2019-04-04T13:55:32.906Z,7.20
2019-04-04T13:57:34.251Z,7.70
2019-04-04T13:59:35.639Z,6.87
2019-04-04T14:01:36.987Z,7.27
2019-04-04T14:03:38.381Z,6.00
2019-04-04T14:05:39.729Z,6.97
2019-04-04T14:07:43.638Z,6.30
2019-04-04T14:09:45.280Z,6.63
2019-04-04T14:11:46.725Z,5.67
2019-04-04T14:13:49.524Z,6.07
2019-04-04T14:15:51.058Z,6.00
2019-04-04T14:17:52.447Z,6.10
2019-04-04T14:19:53.813Z,6.50
2019-04-04T14:21:55.200Z,6.10
2019-04-04T14:23:56.972Z,5.73
2019-04-04T14:25:59.895Z,6.27
2019-04-04T14:28:01.790Z,5.70
2019-04-04T14:30:07.559Z,6.77
2019-04-04T14:32:08.941Z,5.90
2019-04-04T14:34:11.676Z,6.57
2019-04-04T14:36:13.575Z,5.93
2019-04-04T14:38:14.961Z,6.23
2019-04-04T14:40:16.327Z,6.23
2019-04-04T14:42:17.665Z,6.10
2019-04-04T14:44:19.241Z,7.27
2019-04-04T14:46:20.593Z,6.17
2019-04-04T14:48:21.939Z,6.27
2019-04-04T14:50:23.313Z,6.90
2019-04-04T14:52:24.657Z,7.17
2019-04-04T14:54:28.925Z,6.50
2019-04-04T14:56:29.477Z,7.77
2019-04-04T14:58:31.052Z,8.20
2019-04-04T15:00:32.699Z,6.93
2019-04-04T15:02:34.079Z,6.80
2019-04-04T15:04:35.430Z,8.90
2019-04-04T15:06:36.772Z,7.20
2019-04-04T15:08:38.149Z,7.60
2019-04-04T15:10:39.507Z,6.60
2019-04-04T15:12:40.867Z,6.40
2019-04-04T15:14:42.257Z,6.07
2019-04-04T15:16:43.617Z,8.30
2019-04-04T15:18:45.674Z,7.10
2019-04-04T15:20:47.074Z,7.37
2019-04-04T15:22:48.418Z,5.83
2019-04-04T15:24:49.763Z,5.90
2019-04-04T15:26:51.138Z,6.97
2019-04-04T15:28:52.491Z,6.57
2019-04-04T15:30:53.872Z,7.33
2019-04-04T15:32:55.245Z,6.67
2019-04-04T15:34:56.605Z,7.03
2019-04-04T15:36:57.989Z,6.37
2019-04-04T15:38:59.353Z,7.27
2019-04-04T15:41:00.833Z,7.00
2019-04-04T15:43:02.259Z,6.53
2019-04-04T15:45:05.116Z,7.60
2019-04-04T15:47:06.460Z,6.63
2019-04-04T15:49:07.852Z,6.07
2019-04-04T15:51:09.217Z,6.90
2019-04-04T15:53:10.574Z,7.10
2019-04-04T15:55:12.242Z,6.40
2019-04-04T15:57:13.614Z,7.13
2019-04-04T15:59:14.954Z,6.83
2019-04-04T16:01:16.332Z,6.40
2019-04-04T16:03:17.682Z,7.70
2019-04-04T16:05:19.174Z,6.57
2019-04-04T16:07:20.529Z,5.97
2019-04-04T16:09:21.875Z,8.00
2019-04-04T16:11:23.271Z,10.30
2019-04-04T16:13:24.629Z,9.70
2019-04-04T16:15:26.201Z,7.70
2019-04-04T16:17:27.562Z,7.50
2019-04-04T16:19:28.914Z,8.67
2019-04-04T16:21:30.291Z,8.03
2019-04-04T16:23:31.636Z,7.90
2019-04-04T16:25:32.979Z,7.20
2019-04-04T16:27:34.414Z,6.73
2019-04-04T16:29:35.779Z,9.20
2019-04-04T16:31:37.148Z,7.70
2019-04-04T16:33:38.551Z,7.40
2019-04-04T16:35:39.892Z,7.67
2019-04-04T16:37:41.277Z,8.40
2019-04-04T16:39:42.626Z,8.07
2019-04-04T16:41:44.025Z,7.13
2019-04-04T16:43:45.381Z,7.80
2019-04-04T16:45:46.726Z,8.47
2019-04-04T16:47:48.124Z,6.90
2019-04-04T16:49:49.467Z,10.53
2019-04-04T16:51:50.811Z,7.80
2019-04-04T16:53:52.199Z,8.63
2019-04-04T16:55:53.558Z,9.50
2019-04-04T16:57:54.925Z,7.40
2019-04-04T16:59:56.307Z,7.90
2019-04-04T17:01:57.651Z,7.77
2019-04-04T17:04:01.789Z,8.50
2019-04-04T17:06:02.581Z,8.50
2019-04-04T17:08:04.028Z,8.63
2019-04-04T17:10:07.874Z,8.73
2019-04-04T17:12:14.833Z,9.00
2019-04-04T17:14:12.612Z,8.30
2019-04-04T17:16:13.973Z,8.10
2019-04-04T17:18:15.365Z,8.23
2019-04-04T17:20:16.809Z,8.30
2019-04-04T17:22:18.188Z,8.13
2019-04-04T17:24:19.541Z,8.23
2019-04-04T17:26:20.887Z,8.50
2019-04-04T17:28:22.545Z,8.53
2019-04-04T17:30:24.234Z,9.37
2019-04-04T17:32:25.972Z,8.93
2019-04-04T17:34:27.493Z,8.57
2019-04-04T17:36:28.855Z,9.40
2019-04-04T17:38:30.522Z,8.97
2019-04-04T17:40:32.238Z,8.43
2019-04-04T17:42:34.464Z,9.10
2019-04-04T17:44:35.899Z,9.93
2019-04-04T17:46:37.277Z,8.70
2019-04-04T17:48:39.025Z,8.80
2019-04-04T17:50:40.482Z,9.03
2019-04-04T17:52:42.367Z,8.33
2019-04-04T17:54:44.004Z,9.13
2019-04-04T17:56:45.520Z,9.40
2019-04-04T17:58:47.133Z,8.50
2019-04-04T18:00:48.541Z,8.57
2019-04-04T18:02:49.872Z,8.50
2019-04-04T18:04:51.256Z,8.97
2019-04-04T18:06:52.607Z,11.10
2019-04-04T18:08:53.959Z,9.80
2019-04-04T18:10:55.341Z,10.57
2019-04-04T18:12:56.710Z,10.67
2019-04-04T18:14:58.054Z,10.93
2019-04-04T18:16:59.446Z,10.17
2019-04-04T18:19:00.816Z,11.10
2019-04-04T18:21:02.196Z,11.40
2019-04-04T18:23:03.581Z,12.13
2019-04-04T18:25:05.438Z,12.07
2019-04-04T18:27:06.793Z,10.57
2019-04-04T18:29:08.175Z,10.57
2019-04-04T18:31:09.528Z,10.50
2019-04-04T18:33:10.875Z,10.87
2019-04-04T18:35:12.893Z,10.57
2019-04-04T18:37:14.325Z,11.67
2019-04-04T18:39:15.677Z,11.53
2019-04-04T18:41:17.073Z,11.27
2019-04-04T18:43:18.418Z,13.27
2019-04-04T18:45:19.771Z,10.70
2019-04-04T18:47:21.156Z,12.40
2019-04-04T18:49:22.524Z,12.20
2019-04-04T18:51:23.937Z,11.60
2019-04-04T18:53:25.299Z,11.63
2019-04-04T18:55:26.649Z,11.27
2019-04-04T18:57:28.036Z,14.10
2019-04-04T18:59:29.492Z,12.63
2019-04-04T19:01:30.871Z,11.87
2019-04-04T19:03:32.215Z,12.67
2019-04-04T19:05:33.632Z,11.83
2019-04-04T19:07:39.470Z,13.53
2019-04-04T19:09:38.418Z,12.73
2019-04-04T19:11:40.101Z,12.03
2019-04-04T19:13:44.476Z,11.50
2019-04-04T19:15:44.833Z,11.80
2019-04-04T19:17:46.206Z,12.43
2019-04-04T19:19:47.553Z,11.93
2019-04-04T19:21:48.927Z,12.47
2019-04-04T19:23:50.291Z,12.00
2019-04-04T19:25:51.661Z,11.27
2019-04-04T19:27:53.016Z,11.60
2019-04-04T19:29:54.410Z,11.77
2019-04-04T19:31:55.770Z,12.90
2019-04-04T19:33:57.347Z,12.30
2019-04-04T19:35:58.755Z,11.50
2019-04-04T19:38:00.684Z,11.47
2019-04-04T19:40:04.593Z,12.10
2019-04-04T19:42:05.960Z,11.50
2019-04-04T19:44:07.522Z,11.60
2019-04-04T19:46:08.887Z,12.07
2019-04-04T19:48:10.263Z,10.63
2019-04-04T19:50:12.119Z,10.50
2019-04-04T19:52:13.498Z,10.83
2019-04-04T19:54:14.877Z,11.33
2019-04-04T19:56:16.242Z,11.50
2019-04-04T19:58:17.630Z,11.43
2019-04-04T20:00:19.322Z,12.20
2019-04-04T20:02:20.838Z,11.70
2019-04-04T20:04:22.241Z,13.23
2019-04-04T20:06:23.593Z,12.67
2019-04-04T20:08:24.942Z,11.90
2019-04-04T20:10:26.315Z,11.37
2019-04-04T20:12:27.697Z,10.77
2019-04-04T20:14:29.235Z,10.97
2019-04-04T20:16:30.594Z,11.60
2019-04-04T20:18:31.974Z,11.20
2019-04-04T20:20:33.328Z,11.30
2019-04-04T20:22:34.662Z,11.73
2019-04-04T20:24:36.053Z,11.80
2019-04-04T20:26:37.428Z,10.50
2019-04-04T20:28:40.131Z,10.60
2019-04-04T20:30:41.852Z,10.73
2019-04-04T20:32:43.199Z,11.17
2019-04-04T20:34:44.552Z,11.37
2019-04-04T20:36:45.933Z,11.17
2019-04-04T20:38:47.293Z,10.83
2019-04-04T20:40:48.637Z,11.73
2019-04-04T20:42:50.040Z,11.87
2019-04-04T20:44:51.393Z,11.10
2019-04-04T20:46:52.763Z,12.13
2019-04-04T20:48:54.108Z,11.63
2019-04-04T20:50:55.593Z,11.73
2019-04-04T20:52:56.957Z,12.37
2019-04-04T20:54:58.432Z,14.07
2019-04-04T20:56:59.798Z,12.83
2019-04-04T20:59:01.169Z,10.97
2019-04-04T21:01:02.631Z,12.53
2019-04-04T21:03:03.974Z,11.60
2019-04-04T21:05:06.160Z,12.03
2019-04-04T21:07:07.527Z,13.23
2019-04-04T21:09:08.901Z,11.60
2019-04-04T21:11:10.358Z,11.83
2019-04-04T21:13:11.716Z,11.57
2019-04-04T21:15:13.734Z,11.33
2019-04-04T21:17:15.095Z,12.87
2019-04-04T21:19:16.467Z,12.77
2019-04-04T21:21:17.818Z,13.40
2019-04-04T21:23:21.315Z,12.30
2019-04-04T21:25:22.700Z,14.43
2019-04-04T21:27:24.057Z,13.80
2019-04-04T21:29:25.472Z,13.70
2019-04-04T21:31:26.800Z,13.40
2019-04-04T21:33:28.225Z,13.70
2019-04-04T21:35:29.569Z,13.60
2019-04-04T21:37:30.962Z,15.07
2019-04-04T21:39:32.337Z,14.53
2019-04-04T21:41:33.682Z,13.50
2019-04-04T21:43:37.021Z,13.40
2019-04-04T21:45:38.383Z,15.13
2019-04-04T21:47:39.923Z,15.57
2019-04-04T21:49:41.293Z,15.33
2019-04-04T21:51:42.635Z,16.07
2019-04-04T21:53:44.011Z,15.33
2019-04-04T21:55:45.379Z,16.47
2019-04-04T21:57:46.730Z,16.97
2019-04-04T21:59:48.105Z,17.87
2019-04-04T22:01:49.672Z,18.20
2019-04-04T22:03:51.291Z,16.13
2019-04-04T22:05:52.679Z,17.20
2019-04-04T22:07:54.017Z,18.60
2019-04-04T22:09:55.419Z,17.80
2019-04-04T22:11:56.986Z,16.90
2019-04-04T22:13:58.328Z,16.70
2019-04-04T22:15:59.670Z,18.40
2019-04-04T22:18:01.041Z,18.27
2019-04-04T22:20:05.209Z,18.87
2019-04-04T22:22:06.592Z,18.10
2019-04-04T22:24:07.951Z,20.40
2019-04-04T22:26:09.339Z,19.40
2019-04-04T22:28:10.694Z,19.10
2019-04-04T22:30:12.440Z,21.93
2019-04-04T22:32:13.816Z,20.70
2019-04-04T22:34:15.262Z,20.73
2019-04-04T22:36:16.646Z,22.47
2019-04-04T22:38:18.007Z,22.07
2019-04-04T22:40:19.363Z,20.53
2019-04-04T22:42:21.114Z,20.70
2019-04-04T22:44:34.021Z,20.23
2019-04-04T22:46:25.739Z,20.87
2019-04-04T22:48:27.129Z,20.50
2019-04-04T22:50:28.477Z,19.80
2019-04-04T22:52:29.821Z,17.80
2019-04-04T22:54:31.199Z,18.80
2019-04-04T22:56:32.564Z,16.43
2019-04-04T22:58:33.943Z,15.93
2019-04-04T23:00:35.390Z,16.13
2019-04-04T23:02:36.737Z,18.40
2019-04-04T23:04:38.126Z,16.10
2019-04-04T23:06:39.506Z,17.23
2019-04-04T23:08:40.887Z,16.50
2019-04-04T23:10:42.353Z,15.57
2019-04-04T23:12:43.693Z,14.93
2019-04-04T23:14:48.313Z,15.13
2019-04-04T23:16:48.348Z,15.97
2019-04-04T23:18:49.721Z,14.90
2019-04-04T23:20:51.323Z,15.63
2019-04-04T23:22:53.304Z,14.53
2019-04-04T23:24:54.931Z,14.50
2019-04-04T23:26:56.300Z,16.53
2019-04-04T23:28:57.692Z,15.20
2019-04-04T23:30:59.037Z,13.90
2019-04-04T23:33:00.438Z,15.63
2019-04-04T23:35:02.590Z,14.83
2019-04-04T23:37:03.937Z,14.80
2019-04-04T23:39:05.808Z,15.13
2019-04-04T23:41:07.175Z,15.40
2019-04-04T23:43:08.559Z,14.33
2019-04-04T23:45:10.184Z,16.33
2019-04-04T23:47:11.559Z,15.47
2019-04-04T23:49:12.940Z,16.00
2019-04-04T23:51:14.511Z,14.70
2019-04-04T23:53:15.854Z,15.67
2019-04-04T23:55:17.323Z,16.60
2019-04-04T23:57:18.695Z,15.40
2019-04-04T23:59:20.054Z,16.73
